createdAt,value
2018-05-15T00:00:23.620Z,5.80
2018-05-15T00:01:23.633Z,5.70
2018-05-15T00:02:23.658Z,5.80
2018-05-15T00:03:23.674Z,5.60
2018-05-15T00:04:23.698Z,5.90
2018-05-15T00:05:23.723Z,5.50
2018-05-15T00:06:23.740Z,6.20
2018-05-15T00:07:23.764Z,5.80
2018-05-15T00:08:23.776Z,5.30
2018-05-15T00:09:23.816Z,5.70
2018-05-15T00:10:23.822Z,5.90
2018-05-15T00:11:23.843Z,6.40
2018-05-15T00:12:23.871Z,6.00
2018-05-15T00:13:23.882Z,6.00
2018-05-15T00:14:23.908Z,5.70
2018-05-15T00:15:23.921Z,6.10
2018-05-15T00:16:23.947Z,6.20
2018-05-15T00:17:23.961Z,5.70
2018-05-15T00:18:23.990Z,6.00
2018-05-15T00:19:24.013Z,5.80
2018-05-15T00:20:24.027Z,6.00
2018-05-15T00:21:24.052Z,5.80
2018-05-15T00:22:24.069Z,6.20
2018-05-15T00:23:24.094Z,6.00
2018-05-15T00:24:24.116Z,5.90
2018-05-15T00:25:24.131Z,6.00
2018-05-15T00:26:24.157Z,5.50
2018-05-15T00:27:24.170Z,5.70
2018-05-15T00:28:24.195Z,6.00
2018-05-15T00:29:24.215Z,6.30
2018-05-15T00:30:24.239Z,6.40
2018-05-15T00:31:24.250Z,6.10
2018-05-15T00:32:24.278Z,6.00
2018-05-15T00:33:24.301Z,5.90
2018-05-15T00:34:24.315Z,5.90
2018-05-15T00:35:24.340Z,6.50
2018-05-15T00:36:24.353Z,6.40
2018-05-15T00:37:24.380Z,6.20
2018-05-15T00:38:24.395Z,6.10
2018-05-15T00:39:24.424Z,6.20
2018-05-15T00:40:24.445Z,6.20
2018-05-15T00:41:24.458Z,6.30
2018-05-15T00:42:24.484Z,6.20
2018-05-15T00:43:24.499Z,6.20
2018-05-15T00:44:24.526Z,6.50
2018-05-15T00:45:24.537Z,6.20
2018-05-15T00:46:24.563Z,6.00
2018-05-15T00:47:24.577Z,6.50
2018-05-15T00:48:24.603Z,6.10
2018-05-15T00:49:24.628Z,6.30
2018-05-15T00:50:24.642Z,6.00
2018-05-15T00:51:24.667Z,6.70
2018-05-15T00:52:24.681Z,6.20
2018-05-15T00:53:24.709Z,6.30
2018-05-15T00:54:24.721Z,6.40
2018-05-15T00:55:24.747Z,6.40
2018-05-15T00:56:24.772Z,6.40
2018-05-15T00:57:24.785Z,5.90
2018-05-15T00:58:24.811Z,6.10
2018-05-15T00:59:24.825Z,6.40
2018-05-15T01:00:24.854Z,6.20
2018-05-15T01:01:24.866Z,6.50
2018-05-15T01:02:24.891Z,6.40
2018-05-15T01:03:24.903Z,6.40
2018-05-15T01:04:24.931Z,6.20
2018-05-15T01:05:24.956Z,6.90
2018-05-15T01:06:24.969Z,6.40
2018-05-15T01:07:24.999Z,6.50
2018-05-15T01:08:25.010Z,6.10
2018-05-15T01:09:25.034Z,6.00
2018-05-15T01:10:25.049Z,6.40
2018-05-15T01:11:25.076Z,6.90
2018-05-15T01:12:25.089Z,7.10
2018-05-15T01:13:25.114Z,6.50
2018-05-15T01:14:25.140Z,6.80
2018-05-15T01:15:25.154Z,6.20
2018-05-15T01:16:25.182Z,6.30
2018-05-15T01:17:25.192Z,6.10
2018-05-15T01:18:25.218Z,6.40
2018-05-15T01:19:25.235Z,6.50
2018-05-15T01:20:25.258Z,6.40
2018-05-15T01:21:25.271Z,6.60
2018-05-15T01:22:25.297Z,6.30
2018-05-15T01:23:25.311Z,6.20
2018-05-15T01:24:25.338Z,6.40
2018-05-15T01:25:25.352Z,6.10
2018-05-15T01:26:25.376Z,6.60
2018-05-15T01:27:25.404Z,6.10
2018-05-15T01:28:25.416Z,6.40
2018-05-15T01:29:25.442Z,6.30
2018-05-15T01:30:25.468Z,6.60
2018-05-15T01:31:25.482Z,6.60
2018-05-15T01:32:25.495Z,6.30
2018-05-15T01:33:25.523Z,6.50
2018-05-15T01:34:25.566Z,6.70
2018-05-15T01:35:25.559Z,6.50
2018-05-15T01:36:25.574Z,6.10
2018-05-15T01:37:25.600Z,6.50
2018-05-15T01:38:25.627Z,6.70
2018-05-15T01:39:25.639Z,6.50
2018-05-15T01:40:25.665Z,6.30
2018-05-15T01:41:25.679Z,6.40
2018-05-15T01:42:25.704Z,6.80
2018-05-15T01:43:25.717Z,6.20
2018-05-15T01:44:25.745Z,6.30
2018-05-15T01:45:25.758Z,6.40
2018-05-15T01:46:25.783Z,6.70
2018-05-15T01:47:25.802Z,6.70
2018-05-15T01:48:25.822Z,6.20
2018-05-15T01:49:25.849Z,7.10
2018-05-15T01:50:25.867Z,6.60
2018-05-15T01:51:25.891Z,6.60
2018-05-15T01:52:25.902Z,7.00
2018-05-15T01:53:25.927Z,6.70
2018-05-15T01:54:25.942Z,7.00
2018-05-15T01:55:25.968Z,6.60
2018-05-15T01:56:25.980Z,6.70
2018-05-15T01:57:26.007Z,6.80
2018-05-15T01:58:26.020Z,6.50
2018-05-15T01:59:26.047Z,6.90
2018-05-15T02:00:26.060Z,7.50
2018-05-15T02:01:26.085Z,6.50
2018-05-15T02:02:26.111Z,6.60
2018-05-15T02:03:26.124Z,6.70
2018-05-15T02:04:26.153Z,6.80
2018-05-15T02:05:26.166Z,7.00
2018-05-15T02:06:26.189Z,6.50
2018-05-15T02:07:26.204Z,6.90
2018-05-15T02:08:26.230Z,6.80
2018-05-15T02:09:26.242Z,6.50
2018-05-15T02:10:26.269Z,6.30
2018-05-15T02:11:26.282Z,7.00
2018-05-15T02:12:26.310Z,6.90
2018-05-15T02:13:26.321Z,6.90
2018-05-15T02:14:26.347Z,7.10
2018-05-15T02:15:26.362Z,6.60
2018-05-15T02:16:26.388Z,7.00
2018-05-15T02:17:26.413Z,7.40
2018-05-15T02:18:26.429Z,7.00
2018-05-15T02:19:26.452Z,6.70
2018-05-15T02:20:26.466Z,6.70
2018-05-15T02:21:26.495Z,6.80
2018-05-15T02:22:26.509Z,6.70
2018-05-15T02:23:26.531Z,7.10
2018-05-15T02:24:26.545Z,6.90
2018-05-15T02:25:26.571Z,7.00
2018-05-15T02:26:26.584Z,7.40
2018-05-15T02:27:26.610Z,7.30
2018-05-15T02:28:26.624Z,7.20
2018-05-15T02:29:26.651Z,6.90
2018-05-15T02:30:26.764Z,6.80
2018-05-15T02:31:26.690Z,7.30
2018-05-15T02:32:26.714Z,6.50
2018-05-15T02:33:26.730Z,7.30
2018-05-15T02:34:26.762Z,6.90
2018-05-15T02:35:26.768Z,6.80
2018-05-15T02:36:26.794Z,6.60
2018-05-15T02:37:26.809Z,7.00
2018-05-15T02:38:26.834Z,6.80
2018-05-15T02:39:26.848Z,6.50
2018-05-15T02:40:26.872Z,6.40
2018-05-15T02:41:26.886Z,6.70
2018-05-15T02:42:26.912Z,6.90
2018-05-15T02:43:26.932Z,7.10
2018-05-15T02:44:26.953Z,7.30
2018-05-15T02:45:26.970Z,7.00
2018-05-15T02:46:26.992Z,6.20
2018-05-15T02:47:27.018Z,7.10
2018-05-15T02:48:27.031Z,7.00
2018-05-15T02:49:27.096Z,7.10
2018-05-15T02:50:27.070Z,6.80
2018-05-15T02:51:27.097Z,6.90
2018-05-15T02:52:27.110Z,7.80
2018-05-15T02:53:27.135Z,7.10
2018-05-15T02:54:27.149Z,7.40
2018-05-15T02:55:27.175Z,7.70
2018-05-15T02:56:27.191Z,7.20
2018-05-15T02:57:27.218Z,7.50
2018-05-15T02:58:27.244Z,7.50
2018-05-15T02:59:27.259Z,7.50
2018-05-15T03:00:27.281Z,7.30
2018-05-15T03:01:27.295Z,7.20
2018-05-15T03:02:27.319Z,7.30
2018-05-15T03:03:27.333Z,7.40
2018-05-15T03:04:27.363Z,7.10
2018-05-15T03:05:27.373Z,6.90
2018-05-15T03:06:27.399Z,7.00
2018-05-15T03:07:27.411Z,7.50
2018-05-15T03:08:27.441Z,7.40
2018-05-15T03:09:27.451Z,7.30
2018-05-15T03:10:27.476Z,7.20
2018-05-15T03:11:27.490Z,7.00
2018-05-15T03:12:27.519Z,7.20
2018-05-15T03:13:27.530Z,7.60
2018-05-15T03:14:27.567Z,7.30
2018-05-15T03:15:27.580Z,7.60
2018-05-15T03:16:27.602Z,7.30
2018-05-15T03:17:27.621Z,6.80
2018-05-15T03:18:27.633Z,7.60
2018-05-15T03:19:27.662Z,7.30
2018-05-15T03:20:27.675Z,7.20
2018-05-15T03:21:27.699Z,7.60
2018-05-15T03:22:27.714Z,7.40
2018-05-15T03:23:27.742Z,7.00
2018-05-15T03:24:27.753Z,7.10
2018-05-15T03:25:27.779Z,7.20
2018-05-15T03:26:27.793Z,7.30
2018-05-15T03:27:27.817Z,7.70
2018-05-15T03:28:27.831Z,7.00
2018-05-15T03:29:27.857Z,7.40
2018-05-15T03:30:27.872Z,7.00
2018-05-15T03:31:27.896Z,7.40
2018-05-15T03:32:27.911Z,7.20
2018-05-15T03:33:27.937Z,7.30
2018-05-15T03:34:27.962Z,7.20
2018-05-15T03:35:27.992Z,7.90
2018-05-15T03:36:28.004Z,7.30
2018-05-15T03:37:28.016Z,7.70
2018-05-15T03:38:28.042Z,7.20
2018-05-15T03:39:28.054Z,7.20
2018-05-15T03:40:28.079Z,7.40
2018-05-15T03:41:28.095Z,7.30
2018-05-15T03:42:28.120Z,7.20
2018-05-15T03:43:28.146Z,7.40
2018-05-15T03:44:28.162Z,7.10
2018-05-15T03:45:28.173Z,7.60
2018-05-15T03:46:28.199Z,7.50
2018-05-15T03:47:28.216Z,7.20
2018-05-15T03:48:28.237Z,7.60
2018-05-15T03:49:28.253Z,7.50
2018-05-15T03:50:28.278Z,7.20
2018-05-15T03:51:28.290Z,7.40
2018-05-15T03:52:28.316Z,7.40
2018-05-15T03:53:28.330Z,7.10
2018-05-15T03:54:28.356Z,6.70
2018-05-15T03:55:28.371Z,7.40
2018-05-15T03:56:28.395Z,7.50
2018-05-15T03:57:28.434Z,6.90
2018-05-15T03:58:28.435Z,7.80
2018-05-15T03:59:28.461Z,7.00
2018-05-15T04:00:28.474Z,7.40
2018-05-15T04:01:28.499Z,7.50
2018-05-15T04:02:28.514Z,7.30
2018-05-15T04:03:28.540Z,7.60
2018-05-15T04:04:28.569Z,8.10
2018-05-15T04:05:28.578Z,7.80
2018-05-15T04:06:28.593Z,7.10
2018-05-15T04:07:28.618Z,7.70
2018-05-15T04:08:28.631Z,7.00
2018-05-15T04:09:28.658Z,7.00
2018-05-15T04:10:28.672Z,7.20
2018-05-15T04:11:28.697Z,7.80
2018-05-15T04:12:28.713Z,7.50
2018-05-15T04:13:28.737Z,7.40
2018-05-15T04:14:28.764Z,7.20
2018-05-15T04:15:28.776Z,7.20
2018-05-15T04:16:28.802Z,7.60
2018-05-15T04:17:28.815Z,7.10
2018-05-15T04:18:28.854Z,6.90
2018-05-15T04:19:28.858Z,8.00
2018-05-15T04:20:28.881Z,7.50
2018-05-15T04:21:28.896Z,7.50
2018-05-15T04:22:28.920Z,7.50
2018-05-15T04:23:28.934Z,7.60
2018-05-15T04:24:28.960Z,7.70
2018-05-15T04:25:28.986Z,7.20
2018-05-15T04:26:29.012Z,7.30
2018-05-15T04:27:29.025Z,7.40
2018-05-15T04:28:29.135Z,7.10
2018-05-15T04:29:29.066Z,7.40
2018-05-15T04:30:29.079Z,7.40
2018-05-15T04:31:29.105Z,7.40
2018-05-15T04:32:29.118Z,8.00
2018-05-15T04:33:29.149Z,7.10
2018-05-15T04:34:29.158Z,7.80
2018-05-15T04:35:29.183Z,7.30
2018-05-15T04:36:29.210Z,7.10
2018-05-15T04:37:29.223Z,7.50
2018-05-15T04:38:29.249Z,7.00
2018-05-15T04:39:29.261Z,7.30
2018-05-15T04:40:29.301Z,7.50
2018-05-15T04:41:29.306Z,7.40
2018-05-15T04:42:29.328Z,7.60
2018-05-15T04:43:29.360Z,6.70
2018-05-15T04:44:29.366Z,7.00
2018-05-15T04:45:29.392Z,6.80
2018-05-15T04:46:29.407Z,7.20
2018-05-15T04:47:29.432Z,7.30
2018-05-15T04:48:29.448Z,7.20
2018-05-15T04:49:29.472Z,7.00
2018-05-15T04:50:29.485Z,7.00
2018-05-15T04:51:29.511Z,6.80
2018-05-15T04:52:29.538Z,7.00
2018-05-15T04:53:29.550Z,7.20
2018-05-15T04:54:29.589Z,7.40
2018-05-15T04:55:29.591Z,7.50
2018-05-15T04:56:29.616Z,7.30
2018-05-15T04:57:29.630Z,7.50
2018-05-15T04:58:29.658Z,7.30
2018-05-15T04:59:29.682Z,7.50
2018-05-15T05:00:29.695Z,7.20
2018-05-15T05:01:29.721Z,8.10
2018-05-15T05:02:29.735Z,7.50
2018-05-15T05:03:29.760Z,7.50
2018-05-15T05:04:29.774Z,7.70
2018-05-15T05:05:29.800Z,7.50
2018-05-15T05:06:29.826Z,7.70
2018-05-15T05:07:29.839Z,7.60
2018-05-15T05:08:29.878Z,8.00
2018-05-15T05:09:29.879Z,7.60
2018-05-15T05:10:29.905Z,7.70
2018-05-15T05:11:29.931Z,7.70
2018-05-15T05:12:29.945Z,7.40
2018-05-15T05:13:29.970Z,7.70
2018-05-15T05:14:29.984Z,7.40
2018-05-15T05:15:30.010Z,7.10
2018-05-15T05:16:30.037Z,7.50
2018-05-15T05:17:30.050Z,8.00
2018-05-15T05:18:30.074Z,7.70
2018-05-15T05:19:30.089Z,7.60
2018-05-15T05:20:30.115Z,7.50
2018-05-15T05:21:30.141Z,7.30
2018-05-15T05:22:30.167Z,7.60
2018-05-15T05:23:30.179Z,7.70
2018-05-15T05:24:30.195Z,8.00
2018-05-15T05:25:30.220Z,7.60
2018-05-15T05:26:30.245Z,7.80
2018-05-15T05:27:30.259Z,7.50
2018-05-15T05:28:30.284Z,7.60
2018-05-15T05:29:30.299Z,7.80
2018-05-15T05:30:30.325Z,7.10
2018-05-15T05:31:30.351Z,7.70
2018-05-15T05:32:30.363Z,7.60
2018-05-15T05:33:30.392Z,7.60
2018-05-15T05:34:30.415Z,7.80
2018-05-15T05:35:30.428Z,7.60
2018-05-15T05:36:30.456Z,7.50
2018-05-15T05:37:30.469Z,7.40
2018-05-15T05:38:30.494Z,7.50
2018-05-15T05:39:30.520Z,7.20
2018-05-15T05:40:30.534Z,7.70
2018-05-15T05:41:30.560Z,8.00
2018-05-15T05:42:30.586Z,8.30
2018-05-15T05:43:30.601Z,7.90
2018-05-15T05:44:30.625Z,8.50
2018-05-15T05:45:30.650Z,7.60
2018-05-15T05:46:30.677Z,7.60
2018-05-15T05:47:30.690Z,8.00
2018-05-15T05:48:30.705Z,7.90
2018-05-15T05:49:30.731Z,7.90
2018-05-15T05:50:30.756Z,7.50
2018-05-15T05:51:30.772Z,7.40
2018-05-15T05:52:30.795Z,8.10
2018-05-15T05:53:30.823Z,8.30
2018-05-15T05:54:30.835Z,8.10
2018-05-15T05:55:30.861Z,7.80
2018-05-15T05:56:30.886Z,8.10
2018-05-15T05:57:30.901Z,7.40
2018-05-15T05:58:30.928Z,7.40
2018-05-15T05:59:30.952Z,7.40
2018-05-15T06:00:30.968Z,7.80
2018-05-15T06:01:30.991Z,8.40
2018-05-15T06:02:31.018Z,7.40
2018-05-15T06:03:31.031Z,8.20
2018-05-15T06:04:31.057Z,7.70
2018-05-15T06:05:31.083Z,8.60
2018-05-15T06:06:31.096Z,8.30
2018-05-15T06:07:31.122Z,8.80
2018-05-15T06:08:31.149Z,8.50
2018-05-15T06:09:31.173Z,7.90
2018-05-15T06:10:31.188Z,7.90
2018-05-15T06:11:31.213Z,10.30
2018-05-15T06:12:31.241Z,8.60
2018-05-15T06:13:31.265Z,8.30
2018-05-15T06:14:31.278Z,9.50
2018-05-15T06:15:31.305Z,8.60
2018-05-15T06:16:31.319Z,8.40
2018-05-15T06:17:31.345Z,8.00
2018-05-15T06:18:31.371Z,12.40
2018-05-15T06:19:31.401Z,8.50
2018-05-15T06:20:31.423Z,8.90
2018-05-15T06:21:31.436Z,8.00
2018-05-15T06:22:31.462Z,7.40
2018-05-15T06:23:31.487Z,7.40
2018-05-15T06:24:31.513Z,8.00
2018-05-15T06:25:31.529Z,7.20
2018-05-15T06:26:31.557Z,7.60
2018-05-15T06:27:31.644Z,7.40
2018-05-15T06:28:31.608Z,6.70
2018-05-15T06:29:31.641Z,6.80
2018-05-15T06:30:31.657Z,7.80
2018-05-15T06:31:31.671Z,7.10
2018-05-15T06:32:31.725Z,9.20
2018-05-15T06:33:31.722Z,7.20
2018-05-15T06:34:31.750Z,7.20
2018-05-15T06:35:31.775Z,16.80
2018-05-15T06:36:31.800Z,6.40
2018-05-15T06:37:31.826Z,8.80
2018-05-15T06:38:31.939Z,7.60
2018-05-15T06:39:31.880Z,7.00
2018-05-15T06:40:31.904Z,8.60
2018-05-15T06:41:31.943Z,7.00
2018-05-15T06:42:31.957Z,7.40
2018-05-15T06:43:31.982Z,7.40
2018-05-15T06:44:32.021Z,7.20
2018-05-15T06:45:32.048Z,7.10
2018-05-15T06:46:32.073Z,6.90
2018-05-15T06:47:32.099Z,7.40
2018-05-15T06:48:32.129Z,7.30
2018-05-15T06:49:32.151Z,6.90
2018-05-15T06:50:32.177Z,6.90
2018-05-15T06:51:32.214Z,8.20
2018-05-15T06:52:32.240Z,7.00
2018-05-15T06:53:32.267Z,7.90
2018-05-15T06:54:32.294Z,7.10
2018-05-15T06:55:32.331Z,7.40
2018-05-15T06:56:32.348Z,6.80
2018-05-15T06:57:32.385Z,7.30
2018-05-15T06:58:32.410Z,8.90
2018-05-15T06:59:32.436Z,12.50
2018-05-15T07:00:32.461Z,7.40
2018-05-15T07:01:32.499Z,6.60
2018-05-15T07:02:32.525Z,6.80
2018-05-15T07:03:32.551Z,6.30
2018-05-15T07:04:32.594Z,6.60
2018-05-15T07:05:32.616Z,6.30
2018-05-15T07:06:32.642Z,6.40
2018-05-15T07:07:32.669Z,6.20
2018-05-15T07:08:32.705Z,6.00
2018-05-15T07:09:32.733Z,6.10
2018-05-15T07:10:32.759Z,6.20
2018-05-15T07:11:32.803Z,6.90
2018-05-15T07:12:32.824Z,7.50
2018-05-15T07:13:32.851Z,8.50
2018-05-15T07:14:32.889Z,7.30
2018-05-15T07:15:32.913Z,6.60
2018-05-15T07:16:32.938Z,7.00
2018-05-15T07:17:32.977Z,7.40
2018-05-15T07:18:33.004Z,6.40
2018-05-15T07:19:33.119Z,6.60
2018-05-15T07:20:33.056Z,6.80
2018-05-15T07:21:33.097Z,7.20
2018-05-15T07:22:33.119Z,6.10
2018-05-15T07:23:33.145Z,6.60
2018-05-15T07:24:33.185Z,6.20
2018-05-15T07:25:33.210Z,6.50
2018-05-15T07:26:33.238Z,5.90
2018-05-15T07:27:33.276Z,6.90
2018-05-15T07:28:33.302Z,6.40
2018-05-15T07:29:33.330Z,6.40
2018-05-15T07:30:33.365Z,6.70
2018-05-15T07:31:33.392Z,8.60
2018-05-15T07:32:33.417Z,8.00
2018-05-15T07:33:33.455Z,7.30
2018-05-15T07:34:33.482Z,6.70
2018-05-15T07:35:33.870Z,6.80
2018-05-15T07:36:33.896Z,6.80
2018-05-15T07:37:33.572Z,7.20
2018-05-15T07:38:33.609Z,6.60
2018-05-15T07:39:33.637Z,6.90
2018-05-15T07:40:33.676Z,6.30
2018-05-15T07:41:33.700Z,6.50
2018-05-15T07:42:33.739Z,6.60
2018-05-15T07:43:33.765Z,6.30
2018-05-15T07:44:33.792Z,6.40
2018-05-15T07:45:33.830Z,6.00
2018-05-15T07:46:33.856Z,5.90
2018-05-15T07:47:33.895Z,7.70
2018-05-15T07:48:33.920Z,6.80
2018-05-15T07:49:33.959Z,7.20
2018-05-15T07:50:33.986Z,7.50
2018-05-15T07:51:34.026Z,6.60
2018-05-15T07:52:34.049Z,6.60
2018-05-15T07:53:34.103Z,7.30
2018-05-15T07:54:34.113Z,7.60
2018-05-15T07:55:34.152Z,21.50
2018-05-15T07:56:34.176Z,15.20
2018-05-15T07:57:34.216Z,8.30
2018-05-15T07:58:34.245Z,13.50
2018-05-15T07:59:34.281Z,6.10
2018-05-15T08:00:34.307Z,7.30
2018-05-15T08:01:34.345Z,6.30
2018-05-15T08:02:34.384Z,6.20
2018-05-15T08:03:34.409Z,6.10
2018-05-15T08:04:34.452Z,6.90
2018-05-15T08:05:34.486Z,16.60
2018-05-15T08:06:34.513Z,8.80
2018-05-15T08:07:34.551Z,11.60
2018-05-15T08:08:34.577Z,7.80
2018-05-15T08:09:34.615Z,5.70
2018-05-15T08:10:34.653Z,7.50
2018-05-15T08:11:34.680Z,6.50
2018-05-15T08:12:34.718Z,5.90
2018-05-15T08:13:34.824Z,8.30
2018-05-15T08:14:34.794Z,9.70
2018-05-15T08:15:34.822Z,6.30
2018-05-15T08:16:34.859Z,5.80
2018-05-15T08:17:34.896Z,6.20
2018-05-15T08:18:34.937Z,5.70
2018-05-15T08:19:34.962Z,5.80
2018-05-15T08:20:35.001Z,5.30
2018-05-15T08:21:35.040Z,6.00
2018-05-15T08:22:35.094Z,5.30
2018-05-15T08:23:35.103Z,9.40
2018-05-15T08:24:35.142Z,19.40
2018-05-15T08:25:35.180Z,18.50
2018-05-15T08:26:35.219Z,10.70
2018-05-15T08:27:35.248Z,13.30
2018-05-15T08:28:35.285Z,5.80
2018-05-15T08:29:35.324Z,5.20
2018-05-15T08:30:35.360Z,5.70
2018-05-15T08:31:35.386Z,5.70
2018-05-15T08:32:35.425Z,5.30
2018-05-15T08:33:35.462Z,5.50
2018-05-15T08:34:35.502Z,6.40
2018-05-15T08:35:35.528Z,6.30
2018-05-15T08:36:35.566Z,5.90
2018-05-15T08:37:35.627Z,5.50
2018-05-15T08:38:35.631Z,5.70
2018-05-15T08:39:35.668Z,5.60
2018-05-15T08:40:35.708Z,4.80
2018-05-15T08:41:35.737Z,5.80
2018-05-15T08:42:35.770Z,5.50
2018-05-15T08:43:35.810Z,5.10
2018-05-15T08:44:35.837Z,5.30
2018-05-15T08:45:35.875Z,5.20
2018-05-15T08:46:35.914Z,5.10
2018-05-15T08:47:35.939Z,5.60
2018-05-15T08:48:35.977Z,5.70
2018-05-15T08:49:36.006Z,4.90
2018-05-15T08:50:36.047Z,5.60
2018-05-15T08:51:36.167Z,6.60
2018-05-15T08:52:36.107Z,5.70
2018-05-15T08:53:36.145Z,4.70
2018-05-15T08:54:36.184Z,7.10
2018-05-15T08:55:36.208Z,4.90
2018-05-15T08:56:36.248Z,4.90
2018-05-15T08:57:36.286Z,5.00
2018-05-15T08:58:36.312Z,6.40
2018-05-15T08:59:36.356Z,7.20
2018-05-15T09:00:36.379Z,9.50
2018-05-15T09:01:36.414Z,5.00
2018-05-15T09:02:36.453Z,5.00
2018-05-15T09:03:36.493Z,4.90
2018-05-15T09:04:36.519Z,4.80
2018-05-15T09:05:36.557Z,5.80
2018-05-15T09:06:36.593Z,5.50
2018-05-15T09:07:36.621Z,5.10
2018-05-15T09:08:36.659Z,5.10
2018-05-15T09:09:36.697Z,4.60
2018-05-15T09:10:36.741Z,5.00
2018-05-15T09:11:36.762Z,5.10
2018-05-15T09:12:36.799Z,5.10
2018-05-15T09:13:36.839Z,4.80
2018-05-15T09:14:36.866Z,4.60
2018-05-15T09:15:36.902Z,4.60
2018-05-15T09:16:36.941Z,4.50
2018-05-15T09:17:36.980Z,4.50
2018-05-15T09:18:37.018Z,5.20
2018-05-15T09:19:37.046Z,5.00
2018-05-15T09:20:37.083Z,4.50
2018-05-15T09:21:37.126Z,4.80
2018-05-15T09:22:37.159Z,4.60
2018-05-15T09:23:37.185Z,4.30
2018-05-15T09:24:37.226Z,4.80
2018-05-15T09:25:37.274Z,4.50
2018-05-15T09:26:37.289Z,4.40
2018-05-15T09:27:37.327Z,4.00
2018-05-15T09:28:37.367Z,4.80
2018-05-15T09:29:37.405Z,4.70
2018-05-15T09:30:37.431Z,4.30
2018-05-15T09:31:37.471Z,4.20
2018-05-15T09:32:37.507Z,4.50
2018-05-15T09:33:37.533Z,4.70
2018-05-15T09:34:37.571Z,4.70
2018-05-15T09:35:37.610Z,4.50
2018-05-15T09:36:37.636Z,4.70
2018-05-15T09:37:37.674Z,5.20
2018-05-15T09:38:37.713Z,4.70
2018-05-15T09:39:37.739Z,4.60
2018-05-15T09:40:37.776Z,4.90
2018-05-15T09:41:37.803Z,4.30
2018-05-15T09:42:37.842Z,4.90
2018-05-15T09:43:37.881Z,4.70
2018-05-15T09:44:37.905Z,4.30
2018-05-15T09:45:37.945Z,4.50
2018-05-15T09:46:37.972Z,4.90
2018-05-15T09:47:38.009Z,4.40
2018-05-15T09:48:38.034Z,3.90
2018-05-15T09:49:38.073Z,4.60
2018-05-15T09:50:38.101Z,4.20
2018-05-15T09:51:38.125Z,4.10
2018-05-15T09:52:38.163Z,5.90
2018-05-15T09:53:38.190Z,4.60
2018-05-15T09:54:38.228Z,4.90
2018-05-15T09:55:38.254Z,4.50
2018-05-15T09:56:38.302Z,4.80
2018-05-15T09:57:38.319Z,4.50
2018-05-15T09:58:38.360Z,4.50
2018-05-15T09:59:38.397Z,4.30
2018-05-15T10:00:38.424Z,4.20
2018-05-15T10:01:38.464Z,4.40
2018-05-15T10:02:38.497Z,4.20
2018-05-15T10:03:38.523Z,5.70
2018-05-15T10:04:38.566Z,4.30
2018-05-15T10:05:38.635Z,4.30
2018-05-15T10:06:38.627Z,4.70
2018-05-15T10:07:38.698Z,4.60
2018-05-15T10:08:38.691Z,4.30
2018-05-15T10:09:38.731Z,4.60
2018-05-15T10:10:39.079Z,5.60
2018-05-15T10:11:38.794Z,5.00
2018-05-15T10:12:38.821Z,4.40
2018-05-15T10:13:38.859Z,4.60
2018-05-15T10:14:38.884Z,4.50
2018-05-15T10:15:38.923Z,4.70
2018-05-15T10:16:38.949Z,4.40
2018-05-15T10:17:38.987Z,4.60
2018-05-15T10:18:39.012Z,4.90
2018-05-15T10:19:39.052Z,4.60
2018-05-15T10:20:39.079Z,4.20
2018-05-15T10:21:39.128Z,4.70
2018-05-15T10:22:39.146Z,4.60
2018-05-15T10:23:39.168Z,4.70
2018-05-15T10:24:39.558Z,4.80
2018-05-15T10:25:39.233Z,4.80
2018-05-15T10:26:39.318Z,4.80
2018-05-15T10:28:39.335Z,4.60
2018-05-15T10:29:39.365Z,5.00
2018-05-15T10:30:39.400Z,4.50
2018-05-15T10:31:39.425Z,5.20
2018-05-15T10:32:39.464Z,4.40
2018-05-15T10:33:39.491Z,4.80
2018-05-15T10:34:39.517Z,4.70
2018-05-15T10:35:39.555Z,4.20
2018-05-15T10:36:39.580Z,4.40
2018-05-15T10:37:39.619Z,4.00
2018-05-15T10:38:39.646Z,4.30
2018-05-15T10:39:39.683Z,3.90
2018-05-15T10:40:40.261Z,4.10
2018-05-15T10:41:39.796Z,3.90
2018-05-15T10:42:39.976Z,4.10
2018-05-15T10:43:39.812Z,4.20
2018-05-15T10:44:39.840Z,4.10
2018-05-15T10:45:39.923Z,3.80
2018-05-15T10:46:39.918Z,4.40
2018-05-15T10:47:39.951Z,4.30
2018-05-15T10:48:39.980Z,3.90
2018-05-15T10:49:40.006Z,3.80
2018-05-15T10:50:40.114Z,4.30
2018-05-15T10:51:40.083Z,4.10
2018-05-15T10:52:40.109Z,3.50
2018-05-15T10:53:40.147Z,3.90
2018-05-15T10:54:40.186Z,4.00
2018-05-15T10:55:40.414Z,3.80
2018-05-15T10:56:40.250Z,4.40
2018-05-15T10:57:40.275Z,3.90
2018-05-15T10:58:40.319Z,4.10
2018-05-15T10:59:40.569Z,3.80
2018-05-15T11:00:40.378Z,3.70
2018-05-15T11:01:40.419Z,3.80
2018-05-15T11:02:40.443Z,4.20
2018-05-15T11:03:40.494Z,3.90
2018-05-15T11:04:40.526Z,3.90
2018-05-15T11:05:40.548Z,4.10
2018-05-15T11:06:40.584Z,3.50
2018-05-15T11:07:40.609Z,4.10
2018-05-15T11:08:40.657Z,4.00
2018-05-15T11:09:40.686Z,3.80
2018-05-15T11:10:40.712Z,5.60
2018-05-15T11:11:40.752Z,3.70
2018-05-15T11:12:40.865Z,4.50
2018-05-15T11:13:40.816Z,4.60
2018-05-15T11:14:40.842Z,4.80
2018-05-15T11:15:40.927Z,4.10
2018-05-15T11:16:40.967Z,3.80
2018-05-15T11:17:40.946Z,4.00
2018-05-15T11:18:41.055Z,4.00
2018-05-15T11:19:41.012Z,4.70
2018-05-15T11:20:41.060Z,4.90
2018-05-15T11:22:41.112Z,5.00
2018-05-15T11:23:41.139Z,4.50
2018-05-15T11:24:41.176Z,4.60
2018-05-15T11:26:41.243Z,4.10
2018-05-15T11:27:41.267Z,4.10
2018-05-15T11:28:41.305Z,4.80
2018-05-15T11:29:41.330Z,4.50
2018-05-15T11:30:41.358Z,4.20
2018-05-15T11:31:41.397Z,4.80
2018-05-15T11:32:41.628Z,4.30
2018-05-15T11:33:41.462Z,4.50
2018-05-15T11:34:41.485Z,4.30
2018-05-15T11:35:41.558Z,4.40
2018-05-15T11:36:41.551Z,4.20
2018-05-15T11:37:41.588Z,4.10
2018-05-15T11:38:41.615Z,4.30
2018-05-15T11:39:41.641Z,4.00
2018-05-15T11:40:41.679Z,4.80
2018-05-15T11:41:41.786Z,4.50
2018-05-15T11:43:41.769Z,4.60
2018-05-15T11:44:41.807Z,4.20
2018-05-15T11:45:41.844Z,4.60
2018-05-15T11:46:41.871Z,4.40
2018-05-15T11:47:42.020Z,4.30
2018-05-15T11:49:42.954Z,4.80
2018-05-15T11:50:42.972Z,4.90
2018-05-15T11:51:42.808Z,3.60
2018-05-15T11:52:42.505Z,4.40
2018-05-15T11:53:42.092Z,4.20
2018-05-15T11:54:42.117Z,4.30
2018-05-15T11:55:42.709Z,4.10
2018-05-15T11:57:42.422Z,3.90
2018-05-15T11:58:42.246Z,5.90
2018-05-15T12:00:42.660Z,4.80
2018-05-15T12:01:42.699Z,5.10
2018-05-15T12:02:42.728Z,4.50
2018-05-15T12:03:42.429Z,4.70
2018-05-15T12:04:42.439Z,4.80
2018-05-15T12:05:42.477Z,4.30
2018-05-15T12:06:42.519Z,4.90
2018-05-15T12:07:42.541Z,4.40
2018-05-15T12:08:42.581Z,4.70
2018-05-15T12:09:42.607Z,4.60
2018-05-15T12:10:42.728Z,4.20
2018-05-15T12:11:42.671Z,4.20
2018-05-15T12:12:42.710Z,4.50
2018-05-15T12:13:42.736Z,4.70
2018-05-15T12:14:42.775Z,4.50
2018-05-15T12:15:42.799Z,5.20
2018-05-15T12:16:42.839Z,5.80
2018-05-15T12:17:42.866Z,4.50
2018-05-15T12:18:42.903Z,4.10
2018-05-15T12:19:42.933Z,5.00
2018-05-15T12:20:43.173Z,4.60
2018-05-15T12:21:43.005Z,4.80
2018-05-15T12:22:43.032Z,3.60
2018-05-15T12:23:43.074Z,4.20
2018-05-15T12:24:43.096Z,4.30
2018-05-15T12:25:43.138Z,3.60
2018-05-15T12:26:43.161Z,4.30
2018-05-15T12:27:43.323Z,3.90
2018-05-15T12:28:43.226Z,4.10
2018-05-15T12:29:43.274Z,4.10
2018-05-15T12:30:43.296Z,4.00
2018-05-15T12:31:43.329Z,4.00
2018-05-15T12:32:43.366Z,3.90
2018-05-15T12:33:43.396Z,4.00
2018-05-15T12:34:43.431Z,3.90
2018-05-15T12:35:43.751Z,4.10
2018-05-15T12:36:43.495Z,3.60
2018-05-15T12:37:43.521Z,4.30
2018-05-15T12:38:43.561Z,3.80
2018-05-15T12:39:43.586Z,4.10
2018-05-15T12:40:43.631Z,3.60
2018-05-15T12:41:43.670Z,3.90
2018-05-15T12:42:43.689Z,4.00
2018-05-15T12:43:43.715Z,3.80
2018-05-15T12:44:43.753Z,5.20
2018-05-15T12:45:43.778Z,3.80
2018-05-15T12:46:43.849Z,4.30
2018-05-15T12:47:43.854Z,3.70
2018-05-15T12:48:43.962Z,3.80
2018-05-15T12:49:43.909Z,4.10
2018-05-15T12:50:43.946Z,3.80
2018-05-15T12:51:43.972Z,3.70
2018-05-15T12:52:44.009Z,3.90
2018-05-15T12:53:44.038Z,3.50
2018-05-15T12:54:44.076Z,3.60
2018-05-15T12:55:44.102Z,3.80
2018-05-15T12:56:44.134Z,3.40
2018-05-15T12:57:44.164Z,3.30
2018-05-15T12:58:44.204Z,3.80
2018-05-15T12:59:44.232Z,3.90
2018-05-15T13:00:44.339Z,3.70
2018-05-15T13:01:44.367Z,3.80
2018-05-15T13:02:44.323Z,4.00
2018-05-15T13:03:44.346Z,4.50
2018-05-15T13:04:44.432Z,3.80
2018-05-15T13:05:44.410Z,4.00
2018-05-15T13:06:44.448Z,4.00
2018-05-15T13:07:44.475Z,3.70
2018-05-15T13:08:44.512Z,3.90
2018-05-15T13:09:44.540Z,4.00
2018-05-15T13:10:44.566Z,4.20
2018-05-15T13:11:44.615Z,4.40
2018-05-15T13:12:44.629Z,3.90
2018-05-15T13:13:44.670Z,3.80
2018-05-15T13:14:44.896Z,3.90
2018-05-15T13:15:44.720Z,3.90
2018-05-15T13:16:44.759Z,3.50
2018-05-15T13:17:44.784Z,4.20
2018-05-15T13:18:44.851Z,4.20
2018-05-15T13:19:44.849Z,3.80
2018-05-15T13:20:44.875Z,3.70
2018-05-15T13:21:44.925Z,3.70
2018-05-15T13:22:44.938Z,3.80
2018-05-15T13:23:44.965Z,3.60
2018-05-15T13:24:45.020Z,3.80
2018-05-15T13:25:45.031Z,4.20